Lynn Creek, Mississippi
Current Conditions -  °F | °C
As of 8:45 AM on Thursday 30 Oct 2014 (Local Time) from KGTR Reporting Station
Clear Clear  
Wind Chill: 48°   Ceiling: Unl
Heat Index: 48°   Visibility: 10mi
Dew Point: 45°   Wind: 0mph
Humidity: 87%   Direction: NA
Pressure: 30.16"   Gusts: NA
Location:  33.2136°N, 88.5275°W
Report Text: KGTR 301345Z 00000KT 10SM SKC 09/07 A3016
Loading
Personal Weather Stations






























Interactive Weather Map
Tropical Storm Tracking
New forecast layout! Learn more

10-Day Weather Forecast

Advertisements
Track Severe Weather on mobile